createdAt,value
2022-10-17T00:02:24.985Z,101557.91
2022-10-17T00:05:53.280Z,101555.13
2022-10-17T00:08:57.744Z,101556.06
2022-10-17T00:12:02.814Z,101555.25
2022-10-17T00:15:29.571Z,101558.63
2022-10-17T00:18:31.522Z,101559.00
2022-10-17T00:21:37.504Z,101562.94
2022-10-17T00:24:39.451Z,101564.00
2022-10-17T00:27:50.990Z,101558.09
2022-10-17T00:31:05.861Z,101565.22
2022-10-17T00:34:11.318Z,101561.16
2022-10-17T00:37:20.444Z,101550.88
2022-10-17T00:40:25.333Z,101558.34
2022-10-17T00:43:33.480Z,101549.06
2022-10-17T00:46:36.773Z,101557.03
2022-10-17T00:49:39.324Z,101556.47
2022-10-17T00:52:41.942Z,101554.81
2022-10-17T00:55:53.885Z,101557.47
2022-10-17T00:58:59.952Z,101555.03
2022-10-17T01:02:07.220Z,101558.69
2022-10-17T01:05:16.117Z,101553.62
2022-10-17T01:08:28.626Z,101550.19
2022-10-17T01:11:42.094Z,101553.00
2022-10-17T01:15:09.081Z,101549.72
2022-10-17T01:18:29.276Z,101556.91
2022-10-17T01:21:52.683Z,101554.47
2022-10-17T01:25:16.022Z,101557.00
2022-10-17T01:28:36.787Z,101556.41
2022-10-17T01:32:00.858Z,101549.72
2022-10-17T01:35:19.525Z,101547.41
2022-10-17T01:38:38.927Z,101551.84
2022-10-17T01:41:47.427Z,101561.81
2022-10-17T01:45:21.132Z,101553.84
2022-10-17T01:48:30.385Z,101555.47
2022-10-17T01:51:50.705Z,101559.28
2022-10-17T01:55:27.240Z,101559.56
2022-10-17T01:58:30.323Z,101560.50
2022-10-17T02:01:33.745Z,101560.56
2022-10-17T02:04:36.090Z,101565.97
2022-10-17T02:07:44.950Z,101561.84
2022-10-17T02:10:47.191Z,101563.69
2022-10-17T02:14:10.218Z,101565.34
2022-10-17T02:17:35.209Z,101565.59
2022-10-17T02:20:56.567Z,101563.88
2022-10-17T02:24:42.408Z,101557.84
2022-10-17T02:27:54.454Z,101567.41
2022-10-17T02:31:06.478Z,101568.25
2022-10-17T02:34:19.497Z,101566.50
2022-10-17T02:37:23.884Z,101569.72
2022-10-17T02:40:27.746Z,101574.31
2022-10-17T02:43:33.379Z,101573.41
2022-10-17T02:46:47.225Z,101582.56
2022-10-17T02:49:54.167Z,101584.47
2022-10-17T02:52:59.603Z,101585.00
2022-10-17T02:56:15.320Z,101587.81
2022-10-17T02:59:20.491Z,101591.56
2022-10-17T03:02:22.999Z,101590.66
2022-10-17T03:05:34.437Z,101596.22
2022-10-17T03:08:59.658Z,101594.81
2022-10-17T03:12:11.965Z,101598.03
2022-10-17T03:15:15.040Z,101597.47
2022-10-17T03:18:25.219Z,101594.25
2022-10-17T03:21:27.808Z,101597.53
2022-10-17T03:31:15.534Z,101610.16
2022-10-17T03:34:26.491Z,101611.84
2022-10-17T03:37:35.338Z,101611.22
2022-10-17T03:40:51.903Z,101618.69
2022-10-17T03:44:03.584Z,101623.91
2022-10-17T03:47:13.448Z,101633.59
2022-10-17T03:50:20.838Z,101636.22
2022-10-17T03:53:32.491Z,101633.50
2022-10-17T03:56:44.999Z,101637.47
2022-10-17T03:59:58.318Z,101640.09
2022-10-17T04:03:00.454Z,101637.97
2022-10-17T04:06:14.424Z,101637.84
2022-10-17T04:09:17.949Z,101643.00
2022-10-17T04:12:26.840Z,101644.03
2022-10-17T04:15:30.059Z,101650.63
2022-10-17T04:18:41.725Z,101650.81
2022-10-17T04:21:51.164Z,101654.94
2022-10-17T04:25:07.806Z,101654.13
2022-10-17T04:28:15.534Z,101664.28
2022-10-17T04:31:36.019Z,101659.19
2022-10-17T04:38:02.029Z,101666.09
2022-10-17T04:41:18.852Z,101667.22
2022-10-17T04:44:21.010Z,101668.06
2022-10-17T04:47:49.105Z,101662.03
2022-10-17T04:51:08.039Z,101671.53
2022-10-17T04:54:19.689Z,101676.72
2022-10-17T04:57:34.165Z,101675.06
2022-10-17T05:00:48.151Z,101679.62
2022-10-17T05:03:54.399Z,101677.84
2022-10-17T05:06:59.903Z,101684.84
2022-10-17T05:10:02.004Z,101689.22
2022-10-17T05:13:11.701Z,101686.50
2022-10-17T05:16:16.113Z,101683.75
2022-10-17T05:19:19.190Z,101689.72
2022-10-17T05:26:12.830Z,101693.16
2022-10-17T05:29:15.750Z,101709.19
2022-10-17T05:32:32.220Z,101717.25
2022-10-17T05:35:36.033Z,101715.44
2022-10-17T05:38:39.351Z,101722.13
2022-10-17T05:41:41.701Z,101724.66
2022-10-17T05:44:49.228Z,101728.87
2022-10-17T05:47:56.059Z,101733.19
2022-10-17T05:51:13.876Z,101732.97
2022-10-17T05:54:17.922Z,101737.91
2022-10-17T05:57:20.344Z,101746.16
2022-10-17T06:00:23.128Z,101744.81
2022-10-17T06:03:35.108Z,101756.38
2022-10-17T06:06:39.845Z,101756.03
2022-10-17T06:10:07.433Z,101758.97
2022-10-17T06:13:10.998Z,101771.91
2022-10-17T06:16:13.322Z,101773.63
2022-10-17T06:19:15.698Z,101776.37
2022-10-17T06:22:28.641Z,101785.53
2022-10-17T06:25:41.514Z,101789.84
2022-10-17T06:28:57.312Z,101786.81
2022-10-17T06:32:03.903Z,101784.06
2022-10-17T06:35:13.051Z,101789.78
2022-10-17T06:38:19.162Z,101792.63
2022-10-17T06:41:32.845Z,101798.97
2022-10-17T06:44:40.647Z,101809.56
2022-10-17T06:47:49.021Z,101814.91
2022-10-17T06:50:51.582Z,101815.69
2022-10-17T06:53:54.306Z,101817.53
2022-10-17T06:56:57.076Z,101816.72
2022-10-17T07:00:00.676Z,101820.34
2022-10-17T07:03:05.714Z,101821.19
2022-10-17T07:06:08.105Z,101821.84
2022-10-17T07:09:12.924Z,101831.38
2022-10-17T07:12:15.608Z,101834.28
2022-10-17T07:15:20.033Z,101831.53
2022-10-17T07:18:22.599Z,101845.62
2022-10-17T07:21:26.216Z,101845.44
2022-10-17T07:24:28.301Z,101846.72
2022-10-17T07:27:30.706Z,101847.16
2022-10-17T07:30:33.799Z,101843.25
2022-10-17T07:33:36.460Z,101840.63
2022-10-17T07:36:39.220Z,101840.63
2022-10-17T07:39:41.286Z,101843.28
2022-10-17T07:42:43.784Z,101855.47
2022-10-17T07:45:46.765Z,101850.13
2022-10-17T07:48:53.237Z,101850.56
2022-10-17T07:51:55.930Z,101853.72
2022-10-17T07:54:58.390Z,101851.28
2022-10-17T07:58:00.626Z,101858.69
2022-10-17T08:01:04.117Z,101852.53
2022-10-17T08:04:07.995Z,101859.53
2022-10-17T08:07:20.648Z,101860.06
2022-10-17T08:10:27.984Z,101868.16
2022-10-17T08:13:30.361Z,101874.16
2022-10-17T08:16:32.907Z,101875.50
2022-10-17T08:19:42.372Z,101878.22
2022-10-17T08:22:51.551Z,101884.22
2022-10-17T08:25:55.111Z,101878.00
2022-10-17T08:28:59.031Z,101877.91
2022-10-17T08:32:02.410Z,101881.72
2022-10-17T08:35:16.883Z,101880.31
2022-10-17T08:38:21.033Z,101880.13
2022-10-17T08:41:33.564Z,101877.37
2022-10-17T08:44:44.919Z,101872.78
2022-10-17T08:47:51.580Z,101878.66
2022-10-17T08:51:13.954Z,101883.00
2022-10-17T08:54:54.812Z,101875.28
2022-10-17T08:58:03.800Z,101881.00
2022-10-17T09:01:25.412Z,101886.78
2022-10-17T09:04:46.321Z,101882.47
2022-10-17T09:08:07.446Z,101876.88
2022-10-17T09:11:23.315Z,101879.25
2022-10-17T09:14:46.812Z,101881.31
2022-10-17T09:17:55.103Z,101877.94
2022-10-17T09:25:02.489Z,101873.28
2022-10-17T09:28:13.857Z,101875.31
2022-10-17T09:31:25.256Z,101866.16
2022-10-17T09:34:30.468Z,101876.06
2022-10-17T09:37:32.936Z,101873.75
2022-10-17T09:40:35.746Z,101870.09
2022-10-17T09:43:41.689Z,101877.03
2022-10-17T09:46:58.848Z,101875.13
2022-10-17T09:50:03.080Z,101878.75
2022-10-17T09:53:19.736Z,101881.63
2022-10-17T09:56:22.381Z,101876.22
2022-10-17T09:59:43.836Z,101874.66
2022-10-17T10:02:50.063Z,101874.41
2022-10-17T10:06:18.170Z,101875.62
2022-10-17T10:09:23.640Z,101878.75
2022-10-17T10:12:28.102Z,101877.69
2022-10-17T10:15:36.480Z,101872.41
2022-10-17T10:18:43.898Z,101875.13
2022-10-17T10:22:04.229Z,101864.28
2022-10-17T10:25:08.013Z,101864.16
2022-10-17T10:28:20.899Z,101867.09
2022-10-17T10:31:27.582Z,101862.47
2022-10-17T10:34:41.621Z,101872.62
2022-10-17T10:37:46.847Z,101867.03
2022-10-17T10:40:54.671Z,101860.63
2022-10-17T10:43:57.812Z,101857.37
2022-10-17T10:47:08.155Z,101864.69
2022-10-17T10:50:25.042Z,101853.69
2022-10-17T10:53:34.208Z,101860.81
2022-10-17T10:56:44.362Z,101861.16
2022-10-17T11:00:10.051Z,101849.16
2022-10-17T11:03:22.901Z,101850.53
2022-10-17T11:06:29.429Z,101842.63
2022-10-17T11:09:41.843Z,101842.19
2022-10-17T11:16:06.128Z,101848.72
2022-10-17T11:19:17.860Z,101849.12
2022-10-17T11:22:34.191Z,101846.06
2022-10-17T11:25:40.283Z,101844.28
2022-10-17T11:28:47.167Z,101835.50
2022-10-17T11:31:51.758Z,101832.03
2022-10-17T11:34:59.243Z,101829.81
2022-10-17T11:38:13.697Z,101830.78
2022-10-17T11:41:29.757Z,101822.56
2022-10-17T11:44:36.491Z,101817.81
2022-10-17T11:47:40.341Z,101820.50
2022-10-17T11:54:22.229Z,101815.16
2022-10-17T11:57:27.589Z,101813.50
2022-10-17T12:00:40.863Z,101816.16
2022-10-17T12:04:46.274Z,101817.25
2022-10-17T12:07:53.348Z,101808.72
2022-10-17T12:11:02.198Z,101807.63
2022-10-17T12:14:26.730Z,101805.91
2022-10-17T12:17:39.575Z,101797.94
2022-10-17T12:20:56.003Z,101797.97
2022-10-17T12:23:58.237Z,101789.19
2022-10-17T12:27:19.429Z,101788.75
2022-10-17T12:30:24.624Z,101789.28
2022-10-17T12:33:47.832Z,101774.78
2022-10-17T12:36:53.804Z,101778.41
2022-10-17T12:39:57.580Z,101773.78
2022-10-17T12:43:04.000Z,101779.25
2022-10-17T12:46:08.527Z,101775.63
2022-10-17T12:49:40.114Z,101782.28
2022-10-17T12:52:42.419Z,101775.84
2022-10-17T12:55:45.608Z,101768.41
2022-10-17T12:58:52.858Z,101772.19
2022-10-17T13:01:58.415Z,101772.22
2022-10-17T13:05:06.649Z,101770.28
2022-10-17T13:08:15.974Z,101762.34
2022-10-17T13:11:31.417Z,101762.50
2022-10-17T13:14:36.183Z,101759.28
2022-10-17T13:17:43.041Z,101758.87
2022-10-17T13:20:54.505Z,101762.34
2022-10-17T13:24:04.017Z,101761.78
2022-10-17T13:27:21.932Z,101752.69
2022-10-17T13:30:27.962Z,101754.94
2022-10-17T13:33:40.820Z,101749.44
2022-10-17T13:36:48.505Z,101756.91
2022-10-17T13:39:58.098Z,101756.44
2022-10-17T13:43:33.865Z,101752.00
2022-10-17T13:46:39.920Z,101749.34
2022-10-17T13:49:43.199Z,101753.78
2022-10-17T13:53:05.370Z,101756.28
2022-10-17T13:56:29.679Z,101748.78
2022-10-17T13:59:51.718Z,101749.78
2022-10-17T14:03:06.777Z,101746.00
2022-10-17T14:06:15.528Z,101750.16
2022-10-17T14:09:26.108Z,101746.44
2022-10-17T14:12:33.665Z,101744.59
2022-10-17T14:15:46.154Z,101743.78
2022-10-17T14:18:50.242Z,101742.41
2022-10-17T14:21:57.208Z,101738.34
2022-10-17T14:25:02.763Z,101735.00
2022-10-17T14:28:09.911Z,101731.50
2022-10-17T14:31:25.956Z,101732.06
2022-10-17T14:34:40.097Z,101733.47
2022-10-17T14:37:47.182Z,101732.09
2022-10-17T14:40:50.741Z,101735.31
2022-10-17T14:43:57.792Z,101729.22
2022-10-17T14:47:30.735Z,101739.13
2022-10-17T14:54:05.444Z,101732.66
2022-10-17T14:57:15.098Z,101729.94
2022-10-17T15:00:18.615Z,101726.00
2022-10-17T15:03:23.993Z,101724.28
2022-10-17T15:06:35.298Z,101728.94
2022-10-17T15:09:40.126Z,101732.50
2022-10-17T15:12:58.793Z,101731.87
2022-10-17T15:16:16.379Z,101733.72
2022-10-17T15:19:24.617Z,101728.50
2022-10-17T15:22:30.731Z,101728.09
2022-10-17T15:25:36.140Z,101730.91
2022-10-17T15:28:44.000Z,101738.16
2022-10-17T15:31:51.949Z,101735.91
2022-10-17T15:34:54.511Z,101737.03
2022-10-17T15:37:57.041Z,101738.25
2022-10-17T15:41:00.197Z,101732.38
2022-10-17T15:44:04.350Z,101735.19
2022-10-17T15:47:07.580Z,101738.87
2022-10-17T15:50:16.270Z,101744.38
2022-10-17T15:53:28.237Z,101751.53
2022-10-17T15:56:32.630Z,101743.84
2022-10-17T15:59:35.856Z,101757.38
2022-10-17T16:02:38.751Z,101756.09
2022-10-17T16:05:43.780Z,101758.19
2022-10-17T16:08:47.491Z,101754.97
2022-10-17T16:11:50.071Z,101757.25
2022-10-17T16:14:56.849Z,101758.25
2022-10-17T16:18:02.788Z,101757.44
2022-10-17T16:21:10.430Z,101754.75
2022-10-17T16:24:14.142Z,101764.84
2022-10-17T16:27:17.432Z,101758.22
2022-10-17T16:33:26.092Z,101761.81
2022-10-17T16:36:29.560Z,101767.97
2022-10-17T16:39:40.762Z,101769.44
2022-10-17T16:42:44.623Z,101764.88
2022-10-17T16:45:47.035Z,101770.56
2022-10-17T16:48:49.850Z,101773.03
2022-10-17T16:51:56.424Z,101779.75
2022-10-17T16:55:01.246Z,101772.56
2022-10-17T16:58:03.682Z,101776.50
2022-10-17T17:01:07.251Z,101780.50
2022-10-17T17:04:10.338Z,101776.56
2022-10-17T17:07:14.397Z,101772.00
2022-10-17T17:10:21.948Z,101780.91
2022-10-17T17:13:24.445Z,101778.66
2022-10-17T17:16:36.726Z,101780.94
2022-10-17T17:19:38.929Z,101787.38
2022-10-17T17:22:41.450Z,101781.84
2022-10-17T17:25:47.230Z,101780.34
2022-10-17T17:28:49.920Z,101785.03
2022-10-17T17:31:52.400Z,101790.94
2022-10-17T17:34:55.852Z,101787.75
2022-10-17T17:37:59.204Z,101784.19
2022-10-17T17:41:01.695Z,101792.41
2022-10-17T17:44:06.002Z,101794.78
2022-10-17T17:47:08.482Z,101793.94
2022-10-17T17:50:11.429Z,101791.69
2022-10-17T17:53:16.596Z,101784.34
2022-10-17T17:56:20.222Z,101779.56
2022-10-17T17:59:23.409Z,101788.94
2022-10-17T18:02:29.431Z,101795.22
2022-10-17T18:05:31.928Z,101789.59
2022-10-17T18:08:35.034Z,101783.59
2022-10-17T18:11:37.451Z,101786.28
2022-10-17T18:14:46.159Z,101784.31
2022-10-17T18:17:51.310Z,101783.84
2022-10-17T18:21:00.536Z,101784.47
2022-10-17T18:24:08.696Z,101784.31
2022-10-17T18:27:22.744Z,101779.25
2022-10-17T18:30:28.043Z,101785.81
2022-10-17T18:33:33.473Z,101784.19
2022-10-17T18:36:35.940Z,101794.09
2022-10-17T18:39:38.213Z,101784.53
2022-10-17T18:42:45.009Z,101787.34
2022-10-17T18:45:47.263Z,101785.91
2022-10-17T18:48:51.089Z,101779.19
2022-10-17T18:51:53.991Z,101780.19
2022-10-17T18:54:58.946Z,101789.91
2022-10-17T18:58:01.589Z,101783.91
2022-10-17T19:01:05.191Z,101790.09
2022-10-17T19:04:09.374Z,101787.97
2022-10-17T19:07:12.037Z,101779.34
2022-10-17T19:10:14.656Z,101776.00
2022-10-17T19:13:21.857Z,101782.25
2022-10-17T19:16:35.190Z,101784.28
2022-10-17T19:19:43.789Z,101788.22
2022-10-17T19:22:47.154Z,101786.56
2022-10-17T19:25:50.105Z,101780.28
2022-10-17T19:28:53.955Z,101784.88
2022-10-17T19:35:03.822Z,101778.44
2022-10-17T19:38:06.027Z,101778.87
2022-10-17T19:41:11.474Z,101778.03
2022-10-17T19:44:19.166Z,101775.47
2022-10-17T19:50:45.941Z,101774.69
2022-10-17T19:53:50.052Z,101780.97
2022-10-17T19:56:53.247Z,101771.41
2022-10-17T19:59:59.706Z,101781.12
2022-10-17T20:03:03.849Z,101775.75
2022-10-17T20:06:11.540Z,101776.88
2022-10-17T20:09:17.400Z,101781.88
2022-10-17T20:12:26.653Z,101783.56
2022-10-17T20:15:35.465Z,101778.75
2022-10-17T20:18:40.127Z,101784.22
2022-10-17T20:21:43.175Z,101787.00
2022-10-17T20:24:45.394Z,101781.22
2022-10-17T20:27:48.445Z,101772.72
2022-10-17T20:30:53.071Z,101776.50
2022-10-17T20:33:56.400Z,101782.94
2022-10-17T20:37:06.960Z,101779.16
2022-10-17T20:40:34.983Z,101780.28
2022-10-17T20:43:40.673Z,101779.94
2022-10-17T20:47:01.192Z,101779.72
2022-10-17T20:50:05.150Z,101776.00
2022-10-17T20:53:35.594Z,101773.25
2022-10-17T20:56:33.063Z,101778.28
2022-10-17T20:59:36.458Z,101783.19
2022-10-17T21:02:39.236Z,101774.00
2022-10-17T21:05:42.466Z,101772.81
2022-10-17T21:08:47.430Z,101781.00
2022-10-17T21:11:55.961Z,101778.22
2022-10-17T21:14:59.608Z,101776.75
2022-10-17T21:18:05.182Z,101781.81
2022-10-17T21:21:09.293Z,101779.75
2022-10-17T21:24:14.238Z,101782.06
2022-10-17T21:27:18.127Z,101780.44
2022-10-17T21:30:21.436Z,101777.06
2022-10-17T21:33:24.939Z,101778.97
2022-10-17T21:36:27.880Z,101780.13
2022-10-17T21:39:31.830Z,101777.47
2022-10-17T21:42:39.264Z,101777.62
2022-10-17T21:45:45.051Z,101772.69
2022-10-17T21:48:49.031Z,101774.59
2022-10-17T21:51:57.781Z,101775.72
2022-10-17T21:55:00.536Z,101770.41
2022-10-17T21:58:06.629Z,101769.94
2022-10-17T22:01:12.847Z,101773.63
2022-10-17T22:04:17.531Z,101778.78
2022-10-17T22:07:25.419Z,101778.16
2022-10-17T22:10:27.757Z,101769.47
2022-10-17T22:13:34.017Z,101766.50
2022-10-17T22:16:39.169Z,101769.47
2022-10-17T22:19:51.625Z,101766.31
2022-10-17T22:22:59.814Z,101755.94
2022-10-17T22:26:04.156Z,101761.00
2022-10-17T22:29:15.914Z,101762.56
2022-10-17T22:32:25.006Z,101762.72
2022-10-17T22:35:51.784Z,101752.56
2022-10-17T22:38:54.283Z,101754.63
2022-10-17T22:42:07.284Z,101755.63
2022-10-17T22:45:21.689Z,101753.22
2022-10-17T22:48:45.928Z,101762.97
2022-10-17T22:51:51.223Z,101758.97
2022-10-17T22:55:19.867Z,101766.78
2022-10-17T23:01:43.140Z,101755.56
2022-10-17T23:05:02.936Z,101757.06
2022-10-17T23:08:22.986Z,101752.59
2022-10-17T23:11:25.113Z,101747.75
2022-10-17T23:14:40.120Z,101746.28
2022-10-17T23:21:09.299Z,101743.91
2022-10-17T23:24:17.776Z,101741.34
2022-10-17T23:27:22.327Z,101730.97
2022-10-17T23:30:31.214Z,101736.97
2022-10-17T23:33:57.187Z,101734.56
2022-10-17T23:37:20.697Z,101735.50
2022-10-17T23:40:23.512Z,101726.41
2022-10-17T23:43:42.638Z,101730.84
2022-10-17T23:46:45.309Z,101730.94
2022-10-17T23:49:57.120Z,101728.69
2022-10-17T23:52:59.608Z,101726.22
2022-10-17T23:56:20.230Z,101727.12
2022-10-17T23:59:32.369Z,101715.16
